createdAt,value
2019-05-03T00:00:06.687Z,73.84
2019-05-03T00:03:01.711Z,73.16
2019-05-03T00:05:37.258Z,73.05
2019-05-03T00:08:09.123Z,73.17
2019-05-03T00:10:39.749Z,72.69
2019-05-03T00:13:12.543Z,73.08
2019-05-03T00:16:02.696Z,72.54
2019-05-03T00:18:33.404Z,72.81
2019-05-03T00:21:03.643Z,72.89
2019-05-03T00:23:33.802Z,71.69
2019-05-03T00:26:04.779Z,72.13
2019-05-03T00:28:34.963Z,71.51
2019-05-03T00:31:05.164Z,71.65
2019-05-03T00:33:36.998Z,71.67
2019-05-03T00:36:32.662Z,71.30
2019-05-03T00:39:16.956Z,71.44
2019-05-03T00:41:49.697Z,70.89
2019-05-03T00:44:19.268Z,70.94
2019-05-03T00:46:51.313Z,70.49
2019-05-03T00:49:22.613Z,70.53
2019-05-03T00:51:53.625Z,70.61
2019-05-03T00:54:23.785Z,70.05
2019-05-03T00:56:53.954Z,69.62
2019-05-03T00:59:24.098Z,69.58
2019-05-03T01:01:54.412Z,69.37
2019-05-03T01:04:24.650Z,68.88
2019-05-03T01:06:54.905Z,67.91
2019-05-03T01:09:29.403Z,68.10
2019-05-03T01:11:59.613Z,67.54
2019-05-03T01:14:31.547Z,67.54
2019-05-03T01:17:02.613Z,67.00
2019-05-03T01:19:33.736Z,66.80
2019-05-03T01:22:04.142Z,66.63
2019-05-03T01:24:35.926Z,66.11
2019-05-03T01:27:06.340Z,66.83
2019-05-03T01:29:37.646Z,65.95
2019-05-03T01:32:07.841Z,66.40
2019-05-03T01:34:38.910Z,66.30
2019-05-03T01:37:09.174Z,66.03
2019-05-03T01:39:39.392Z,65.35
2019-05-03T01:42:09.648Z,65.42
2019-05-03T01:44:39.810Z,65.76
2019-05-03T01:47:13.588Z,65.38
2019-05-03T01:49:56.101Z,65.93
2019-05-03T01:52:32.392Z,65.85
2019-05-03T01:55:03.382Z,65.66
2019-05-03T01:57:33.723Z,65.65
2019-05-03T02:00:04.589Z,65.79
2019-05-03T02:02:49.280Z,65.95
2019-05-03T02:05:42.836Z,66.29
2019-05-03T02:08:14.448Z,66.51
2019-05-03T02:10:44.654Z,66.16
2019-05-03T02:13:14.834Z,65.91
2019-05-03T02:15:45.223Z,65.86
2019-05-03T02:18:15.548Z,65.62
2019-05-03T02:20:45.835Z,65.71
2019-05-03T02:23:16.039Z,65.89
2019-05-03T02:25:56.195Z,66.26
2019-05-03T02:28:18.100Z,66.39
2019-05-03T02:30:48.245Z,66.04
2019-05-03T02:33:18.388Z,65.95
2019-05-03T02:35:48.652Z,65.25
2019-05-03T02:38:18.830Z,65.31
2019-05-03T02:40:49.051Z,65.36
2019-05-03T02:43:29.459Z,65.43
2019-05-03T02:46:17.558Z,65.52
2019-05-03T02:49:06.189Z,65.45
2019-05-03T02:51:36.058Z,65.25
2019-05-03T02:54:06.388Z,65.42
2019-05-03T02:56:41.936Z,65.80
2019-05-03T02:59:16.247Z,65.77
2019-05-03T03:01:47.185Z,66.22
2019-05-03T03:04:18.742Z,65.40
2019-05-03T03:06:49.652Z,65.86
2019-05-03T03:09:26.000Z,65.56
2019-05-03T03:12:05.996Z,65.80
2019-05-03T03:14:36.212Z,65.71
2019-05-03T03:17:08.769Z,65.93
2019-05-03T03:19:42.166Z,66.09
2019-05-03T03:22:17.300Z,66.42
2019-05-03T03:24:50.651Z,66.24
2019-05-03T03:27:26.999Z,66.59
2019-05-03T03:30:28.927Z,66.90
2019-05-03T03:32:58.371Z,66.80
2019-05-03T03:35:30.694Z,66.80
2019-05-03T03:38:01.052Z,67.20
2019-05-03T03:40:36.632Z,67.05
2019-05-03T03:43:11.206Z,66.96
2019-05-03T03:45:45.540Z,66.77
2019-05-03T03:48:18.928Z,66.94
2019-05-03T03:50:51.744Z,67.11
2019-05-03T03:53:26.391Z,67.21
2019-05-03T03:55:57.215Z,67.15
2019-05-03T03:58:27.598Z,67.69
2019-05-03T04:00:59.191Z,67.68
2019-05-03T04:03:29.485Z,67.43
2019-05-03T04:06:05.710Z,67.41
2019-05-03T04:08:36.408Z,67.75
2019-05-03T04:11:06.804Z,67.78
2019-05-03T04:13:39.053Z,67.44
2019-05-03T04:16:27.504Z,67.89
2019-05-03T04:19:12.105Z,67.65
2019-05-03T04:21:47.694Z,67.53
2019-05-03T04:24:25.687Z,67.62
2019-05-03T04:27:18.454Z,67.76
2019-05-03T04:29:40.015Z,67.73
2019-05-03T04:32:10.478Z,67.63
2019-05-03T04:34:40.683Z,67.58
2019-05-03T04:37:16.176Z,67.65
2019-05-03T04:39:56.016Z,67.42
2019-05-03T04:42:25.939Z,67.67
2019-05-03T04:44:56.644Z,67.54
2019-05-03T04:47:27.239Z,67.26
2019-05-03T04:49:57.468Z,67.37
2019-05-03T04:52:27.676Z,67.25
2019-05-03T04:54:59.377Z,67.34
2019-05-03T04:57:40.133Z,67.21
2019-05-03T05:00:01.425Z,67.65
2019-05-03T05:02:31.657Z,67.71
2019-05-03T05:05:01.782Z,67.43
2019-05-03T05:07:35.065Z,66.93
2019-05-03T05:10:05.402Z,66.29
2019-05-03T05:12:35.684Z,66.06
2019-05-03T05:15:06.877Z,66.15
2019-05-03T05:17:50.295Z,65.88
2019-05-03T05:20:31.285Z,65.91
2019-05-03T05:23:01.467Z,66.10
2019-05-03T05:25:35.504Z,66.02
2019-05-03T05:28:20.948Z,66.25
2019-05-03T05:30:51.213Z,65.69
2019-05-03T05:33:21.352Z,65.52
2019-05-03T05:35:52.113Z,65.35
2019-05-03T05:38:25.325Z,65.62
2019-05-03T05:40:58.016Z,64.58
2019-05-03T05:43:28.226Z,65.03
2019-05-03T05:45:58.982Z,64.77
2019-05-03T05:48:36.152Z,64.85
2019-05-03T05:51:06.297Z,64.66
2019-05-03T05:53:36.522Z,64.36
2019-05-03T05:56:25.062Z,64.37
2019-05-03T05:59:09.642Z,63.56
2019-05-03T06:01:48.479Z,63.48
2019-05-03T06:04:18.624Z,63.49
2019-05-03T06:06:58.117Z,63.48
2019-05-03T06:09:50.469Z,63.07
2019-05-03T06:12:51.920Z,62.84
2019-05-03T06:15:39.895Z,62.71
2019-05-03T06:18:17.088Z,62.58
2019-05-03T06:20:57.733Z,62.13
2019-05-03T06:23:35.089Z,61.23
2019-05-03T06:26:25.294Z,61.12
2019-05-03T06:28:57.144Z,61.17
2019-05-03T06:31:55.303Z,61.11
2019-05-03T06:34:26.400Z,61.18
2019-05-03T06:36:58.318Z,60.72
2019-05-03T06:39:28.547Z,60.96
2019-05-03T06:41:58.782Z,59.96
2019-05-03T06:44:28.970Z,60.78
2019-05-03T06:47:01.084Z,59.49
2019-05-03T06:49:31.106Z,59.69
2019-05-03T06:52:01.249Z,59.11
2019-05-03T06:54:31.439Z,58.56
2019-05-03T06:57:05.701Z,57.51
2019-05-03T06:59:39.749Z,57.43
2019-05-03T07:02:31.839Z,57.76
2019-05-03T07:05:04.548Z,57.24
2019-05-03T07:07:44.501Z,57.09
2019-05-03T07:10:20.440Z,57.42
2019-05-03T07:13:00.578Z,57.50
2019-05-03T07:15:31.055Z,57.12
2019-05-03T07:18:01.274Z,56.25
2019-05-03T07:20:44.571Z,54.99
2019-05-03T07:23:15.704Z,54.87
2019-05-03T07:25:45.984Z,54.60
2019-05-03T07:28:17.172Z,54.24
2019-05-03T07:30:47.343Z,54.85
2019-05-03T07:33:25.384Z,55.54
2019-05-03T07:35:55.422Z,54.42
2019-05-03T07:38:25.629Z,53.82
2019-05-03T07:40:55.825Z,53.77
2019-05-03T07:43:25.932Z,53.77
2019-05-03T07:45:56.093Z,52.85
2019-05-03T07:48:26.649Z,53.37
2019-05-03T07:50:56.791Z,53.72
2019-05-03T07:53:26.893Z,52.32
2019-05-03T07:56:10.508Z,50.90
2019-05-03T07:58:42.267Z,49.69
2019-05-03T08:01:21.546Z,50.79
2019-05-03T08:03:51.661Z,50.21
2019-05-03T08:06:21.977Z,49.87
2019-05-03T08:08:52.187Z,49.29
2019-05-03T08:11:22.308Z,49.17
2019-05-03T08:13:52.435Z,49.25
2019-05-03T08:16:25.084Z,48.16
2019-05-03T08:18:55.967Z,48.19
2019-05-03T08:21:26.410Z,46.28
2019-05-03T08:23:56.528Z,47.49
2019-05-03T08:26:26.665Z,46.73
2019-05-03T08:28:56.752Z,46.90
2019-05-03T08:31:45.940Z,46.69
2019-05-03T08:34:48.997Z,46.85
2019-05-03T08:37:34.956Z,47.12
2019-05-03T08:40:05.688Z,45.83
2019-05-03T08:42:35.857Z,45.51
2019-05-03T08:45:25.597Z,44.53
2019-05-03T08:47:55.906Z,43.32
2019-05-03T08:50:26.048Z,43.40
2019-05-03T08:52:56.210Z,43.58
2019-05-03T08:55:26.451Z,44.39
2019-05-03T08:57:56.767Z,45.06
2019-05-03T09:00:29.421Z,43.63
2019-05-03T09:02:59.802Z,44.82
2019-05-03T09:05:29.949Z,43.43
2019-05-03T09:08:01.172Z,41.96
2019-05-03T09:10:46.266Z,40.64
2019-05-03T09:13:18.329Z,40.75
2019-05-03T09:15:48.949Z,39.81
2019-05-03T09:18:19.152Z,40.64
2019-05-03T09:20:49.276Z,41.54
2019-05-03T09:23:19.482Z,41.78
2019-05-03T09:25:49.634Z,42.38
2019-05-03T09:28:19.918Z,42.31
2019-05-03T09:30:50.046Z,41.22
2019-05-03T09:33:20.317Z,40.76
2019-05-03T09:35:50.491Z,39.64
2019-05-03T09:38:22.302Z,38.47
2019-05-03T09:40:54.603Z,40.05
2019-05-03T09:43:25.200Z,40.73
2019-05-03T09:45:55.599Z,41.97
2019-05-03T09:48:25.809Z,42.36
2019-05-03T09:50:56.009Z,43.55
2019-05-03T09:53:30.776Z,44.42
2019-05-03T09:56:00.904Z,44.42
2019-05-03T09:58:31.129Z,43.99
2019-05-03T10:01:01.275Z,43.64
2019-05-03T10:03:32.344Z,42.76
2019-05-03T10:06:02.451Z,41.55
2019-05-03T10:08:32.715Z,42.12
2019-05-03T10:11:14.783Z,42.70
2019-05-03T10:13:48.067Z,42.74
2019-05-03T10:16:16.312Z,42.02
2019-05-03T10:18:46.785Z,42.82
2019-05-03T10:21:17.986Z,42.54
2019-05-03T10:23:48.270Z,43.64
2019-05-03T10:26:18.460Z,43.08
2019-05-03T10:28:48.625Z,42.91
2019-05-03T10:31:20.474Z,43.70
2019-05-03T10:33:55.845Z,43.22
2019-05-03T10:36:25.983Z,42.91
2019-05-03T10:38:56.239Z,40.59
2019-05-03T10:41:27.662Z,39.37
2019-05-03T10:43:57.897Z,39.43
2019-05-03T10:46:28.050Z,39.33
2019-05-03T10:48:58.268Z,38.97
2019-05-03T10:51:30.599Z,37.33
2019-05-03T10:54:00.915Z,37.55
2019-05-03T10:56:52.801Z,35.72
2019-05-03T10:59:24.796Z,36.47
2019-05-03T11:02:25.298Z,36.63
2019-05-03T11:04:55.503Z,36.18
2019-05-03T11:07:25.843Z,37.73
2019-05-03T11:09:56.345Z,38.27
2019-05-03T11:12:27.213Z,39.66
2019-05-03T11:14:57.420Z,39.04
2019-05-03T11:17:27.637Z,38.28
2019-05-03T11:19:57.941Z,37.86
2019-05-03T11:22:28.122Z,38.28
2019-05-03T11:24:58.415Z,38.08
2019-05-03T11:27:35.417Z,37.37
2019-05-03T11:30:06.106Z,36.24
2019-05-03T11:32:48.073Z,35.83
2019-05-03T11:35:37.328Z,35.51
2019-05-03T11:38:15.054Z,34.52
2019-05-03T11:40:48.541Z,34.34
2019-05-03T11:43:24.792Z,34.36
2019-05-03T11:45:55.551Z,34.83
2019-05-03T11:48:25.851Z,35.85
2019-05-03T11:50:56.212Z,35.83
2019-05-03T11:53:26.356Z,35.56
2019-05-03T11:55:56.497Z,36.17
2019-05-03T11:58:27.354Z,36.23
2019-05-03T12:01:12.977Z,37.07
2019-05-03T12:03:40.595Z,38.34
2019-05-03T12:06:10.846Z,38.52
2019-05-03T12:08:41.041Z,38.80
2019-05-03T12:11:11.181Z,39.41
2019-05-03T12:13:41.483Z,39.57
2019-05-03T12:16:20.184Z,39.12
2019-05-03T12:18:50.253Z,39.35
2019-05-03T12:21:17.890Z,39.77
2019-05-03T12:23:48.536Z,39.79
2019-05-03T12:26:22.681Z,39.69
2019-05-03T12:28:54.339Z,39.82
2019-05-03T12:31:36.194Z,38.89
2019-05-03T12:33:56.337Z,38.15
2019-05-03T12:36:26.453Z,36.75
2019-05-03T12:38:56.621Z,34.89
2019-05-03T12:41:26.729Z,34.06
2019-05-03T12:43:57.987Z,33.79
2019-05-03T12:46:28.415Z,33.65
2019-05-03T12:48:59.751Z,35.42
2019-05-03T12:51:30.238Z,35.60
2019-05-03T12:54:00.355Z,36.41
2019-05-03T12:56:32.763Z,36.97
2019-05-03T12:59:10.563Z,37.68
2019-05-03T13:02:05.738Z,36.72
2019-05-03T13:04:37.508Z,37.18
2019-05-03T13:07:34.683Z,36.56
2019-05-03T13:10:05.430Z,37.15
2019-05-03T13:12:49.164Z,38.07
2019-05-03T13:15:07.795Z,38.65
2019-05-03T13:17:38.470Z,38.63
2019-05-03T13:20:10.909Z,39.32
2019-05-03T13:22:41.178Z,38.96
2019-05-03T13:25:15.710Z,39.29
2019-05-03T13:27:46.452Z,38.49
2019-05-03T13:30:20.094Z,38.13
2019-05-03T13:32:51.260Z,37.91
2019-05-03T13:35:21.490Z,38.44
2019-05-03T13:37:51.719Z,39.03
2019-05-03T13:40:21.891Z,38.84
2019-05-03T13:42:57.707Z,38.51
2019-05-03T13:45:24.723Z,37.82
2019-05-03T13:47:55.441Z,36.90
2019-05-03T13:50:26.546Z,35.59
2019-05-03T13:53:02.225Z,35.34
2019-05-03T13:55:35.286Z,35.86
2019-05-03T13:58:05.373Z,34.02
2019-05-03T14:00:35.466Z,35.60
2019-05-03T14:03:05.794Z,36.51
2019-05-03T14:05:35.926Z,38.33
2019-05-03T14:08:06.177Z,38.58
2019-05-03T14:10:39.350Z,38.71
2019-05-03T14:13:10.880Z,39.14
2019-05-03T14:15:41.341Z,39.25
2019-05-03T14:18:11.638Z,39.47
2019-05-03T14:21:09.795Z,39.78
2019-05-03T14:23:58.773Z,39.33
2019-05-03T14:26:29.186Z,39.25
2019-05-03T14:28:59.846Z,39.98
2019-05-03T14:31:30.204Z,40.69
2019-05-03T14:34:00.680Z,40.82
2019-05-03T14:36:33.180Z,40.68
2019-05-03T14:39:05.138Z,41.08
2019-05-03T14:41:36.260Z,41.18
2019-05-03T14:44:06.586Z,41.47
2019-05-03T14:46:36.785Z,41.34
2019-05-03T14:49:08.551Z,41.08
2019-05-03T14:51:38.773Z,40.63
2019-05-03T14:54:14.514Z,39.90
2019-05-03T14:57:03.780Z,39.28
2019-05-03T14:59:51.780Z,39.55
2019-05-03T15:02:57.669Z,40.18
2019-05-03T15:05:28.561Z,39.95
2019-05-03T15:08:02.941Z,37.28
2019-05-03T15:10:34.979Z,37.37
2019-05-03T15:13:05.949Z,35.94
2019-05-03T15:15:36.544Z,35.26
2019-05-03T15:18:15.026Z,34.94
2019-05-03T15:20:48.300Z,34.32
2019-05-03T15:23:25.222Z,35.93
2019-05-03T15:25:55.410Z,36.30
2019-05-03T15:28:25.798Z,36.29
2019-05-03T15:30:57.262Z,36.06
2019-05-03T15:33:27.562Z,36.65
2019-05-03T15:35:57.752Z,36.99
2019-05-03T15:38:30.265Z,36.96
2019-05-03T15:41:01.902Z,37.00
2019-05-03T15:43:41.076Z,36.67
2019-05-03T15:46:27.706Z,37.21
2019-05-03T15:48:59.731Z,37.52
2019-05-03T15:51:30.036Z,37.02
2019-05-03T15:54:00.310Z,37.25
2019-05-03T15:56:30.508Z,37.66
2019-05-03T15:59:00.778Z,37.14
2019-05-03T16:01:30.939Z,36.68
2019-05-03T16:04:01.117Z,36.51
2019-05-03T16:06:31.452Z,37.04
2019-05-03T16:09:01.846Z,37.76
2019-05-03T16:11:55.560Z,37.98
2019-05-03T16:14:25.848Z,38.27
2019-05-03T16:16:59.126Z,38.73
2019-05-03T16:19:31.442Z,39.09
2019-05-03T16:22:01.732Z,39.07
2019-05-03T16:24:33.060Z,39.88
2019-05-03T16:27:24.838Z,40.16
2019-05-03T16:29:55.111Z,40.23
2019-05-03T16:32:25.276Z,40.94
2019-05-03T16:34:55.431Z,40.91
2019-05-03T16:37:26.770Z,40.66
2019-05-03T16:39:57.864Z,40.72
2019-05-03T16:42:34.922Z,40.52
2019-05-03T16:45:05.597Z,40.92
2019-05-03T16:47:35.836Z,41.20
2019-05-03T16:50:06.531Z,41.61
2019-05-03T16:52:36.747Z,41.57
2019-05-03T16:55:09.599Z,41.48
2019-05-03T16:57:44.797Z,41.64
2019-05-03T17:00:18.099Z,42.62
2019-05-03T17:02:48.330Z,41.53
2019-05-03T17:05:37.607Z,41.05
2019-05-03T17:08:34.542Z,41.15
2019-05-03T17:11:07.368Z,40.79
2019-05-03T17:13:39.814Z,40.95
2019-05-03T17:16:14.570Z,41.39
2019-05-03T17:18:45.238Z,41.72
2019-05-03T17:21:16.311Z,42.00
2019-05-03T17:23:49.258Z,42.42
2019-05-03T17:26:19.587Z,42.23
2019-05-03T17:28:56.145Z,42.91
2019-05-03T17:31:29.746Z,44.61
2019-05-03T17:34:01.149Z,46.27
2019-05-03T17:36:34.280Z,47.17
2019-05-03T17:39:09.278Z,46.21
2019-05-03T17:41:58.401Z,46.25
2019-05-03T17:44:39.601Z,44.96
2019-05-03T17:47:14.900Z,45.58
2019-05-03T17:49:45.275Z,45.11
2019-05-03T17:52:35.325Z,44.16
2019-05-03T17:55:24.513Z,44.17
2019-05-03T17:58:04.397Z,44.07
2019-05-03T18:00:53.196Z,44.34
2019-05-03T18:03:30.073Z,44.16
2019-05-03T18:06:06.052Z,45.33
2019-05-03T18:08:51.668Z,46.73
2019-05-03T18:11:29.721Z,47.27
2019-05-03T18:14:01.719Z,47.07
2019-05-03T18:16:31.938Z,46.87
2019-05-03T18:19:02.288Z,47.10
2019-05-03T18:21:32.488Z,47.30
2019-05-03T18:24:04.792Z,47.25
2019-05-03T18:26:35.549Z,47.65
2019-05-03T18:29:10.593Z,47.76
2019-05-03T18:31:42.128Z,47.55
2019-05-03T18:34:22.246Z,48.00
2019-05-03T18:36:50.880Z,48.30
2019-05-03T18:39:21.247Z,48.85
2019-05-03T18:41:52.074Z,49.31
2019-05-03T18:44:28.824Z,49.58
2019-05-03T18:47:05.690Z,49.79
2019-05-03T18:49:38.209Z,49.80
2019-05-03T18:52:08.479Z,50.14
2019-05-03T18:54:44.454Z,50.73
2019-05-03T18:57:18.883Z,50.81
2019-05-03T18:59:49.259Z,51.16
2019-05-03T19:02:19.523Z,51.05
2019-05-03T19:05:10.536Z,51.19
2019-05-03T19:08:07.662Z,51.10
2019-05-03T19:10:51.729Z,51.73
2019-05-03T19:13:30.040Z,51.34
2019-05-03T19:16:06.830Z,51.30
2019-05-03T19:18:39.113Z,51.07
2019-05-03T19:21:11.392Z,51.41
2019-05-03T19:23:41.913Z,51.17
2019-05-03T19:26:14.654Z,51.00
2019-05-03T19:28:47.619Z,51.06
2019-05-03T19:31:18.678Z,50.85
2019-05-03T19:33:50.441Z,51.17
2019-05-03T19:36:20.979Z,51.19
2019-05-03T19:38:54.965Z,50.58
2019-05-03T19:41:30.168Z,51.04
2019-05-03T19:44:04.365Z,50.77
2019-05-03T19:46:36.559Z,51.05
2019-05-03T19:49:06.814Z,51.09
2019-05-03T19:51:37.247Z,51.10
2019-05-03T19:54:07.663Z,51.11
2019-05-03T19:56:37.927Z,51.15
2019-05-03T19:59:11.105Z,51.08
2019-05-03T20:02:06.548Z,51.68
2019-05-03T20:05:15.023Z,51.83
2019-05-03T20:08:05.186Z,52.03
2019-05-03T20:10:35.607Z,52.37
2019-05-03T20:13:09.420Z,52.40
2019-05-03T20:15:44.937Z,52.80
2019-05-03T20:18:18.189Z,52.84
2019-05-03T20:20:51.137Z,53.14
2019-05-03T20:23:22.278Z,53.23
2019-05-03T20:25:54.337Z,53.39
2019-05-03T20:28:25.022Z,53.22
2019-05-03T20:30:55.878Z,53.72
2019-05-03T20:33:26.333Z,54.17
2019-05-03T20:36:00.288Z,53.95
2019-05-03T20:38:30.680Z,54.27
2019-05-03T20:41:05.136Z,54.44
2019-05-03T20:44:40.896Z,54.40
2019-05-03T20:47:42.580Z,54.45
2019-05-03T20:50:15.929Z,54.54
2019-05-03T20:52:46.656Z,55.01
2019-05-03T20:55:17.125Z,55.10
2019-05-03T20:57:47.567Z,55.53
2019-05-03T21:00:20.880Z,55.31
2019-05-03T21:02:54.144Z,55.46
2019-05-03T21:05:30.477Z,55.82
2019-05-03T21:07:55.569Z,55.49
2019-05-03T21:10:26.053Z,55.71
2019-05-03T21:12:56.728Z,55.66
2019-05-03T21:15:45.482Z,55.41
2019-05-03T21:18:44.006Z,55.28
2019-05-03T21:21:19.837Z,55.09
2019-05-03T21:23:57.068Z,55.25
2019-05-03T21:26:38.550Z,54.63
2019-05-03T21:29:15.876Z,55.21
2019-05-03T21:31:46.418Z,54.68
2019-05-03T21:34:17.190Z,55.01
2019-05-03T21:36:47.905Z,54.28
2019-05-03T21:39:18.540Z,54.71
2019-05-03T21:41:48.924Z,54.86
2019-05-03T21:44:32.803Z,54.58
2019-05-03T21:47:18.682Z,55.30
2019-05-03T21:49:48.904Z,55.68
2019-05-03T21:52:19.027Z,55.57
2019-05-03T21:54:49.142Z,55.84
2019-05-03T21:57:19.407Z,56.29
2019-05-03T21:59:52.601Z,56.34
2019-05-03T22:02:24.687Z,56.29
2019-05-03T22:04:56.709Z,56.54
2019-05-03T22:07:27.267Z,56.59
2019-05-03T22:09:57.497Z,56.72
2019-05-03T22:12:27.707Z,56.50
2019-05-03T22:15:07.678Z,56.29
2019-05-03T22:18:14.890Z,56.69
2019-05-03T22:20:38.296Z,56.92
2019-05-03T22:23:34.115Z,57.32
2019-05-03T22:26:07.593Z,57.51
2019-05-03T22:28:38.059Z,57.72
2019-05-03T22:31:08.439Z,57.67
2019-05-03T22:33:41.171Z,57.87
2019-05-03T22:36:11.790Z,59.27
2019-05-03T22:38:45.362Z,59.65
2019-05-03T22:41:25.308Z,60.64
2019-05-03T22:43:58.405Z,60.28
2019-05-03T22:46:28.692Z,60.13
2019-05-03T22:49:00.183Z,60.43
2019-05-03T22:51:30.300Z,61.20
2019-05-03T22:54:00.429Z,62.99
2019-05-03T22:56:30.515Z,65.16
2019-05-03T22:59:00.660Z,64.73
2019-05-03T23:01:30.807Z,64.69
2019-05-03T23:04:00.962Z,65.01
2019-05-03T23:06:31.089Z,66.44
2019-05-03T23:09:01.221Z,66.88
2019-05-03T23:11:32.985Z,66.93
2019-05-03T23:14:04.867Z,67.01
2019-05-03T23:16:35.764Z,66.56
2019-05-03T23:19:06.006Z,67.45
2019-05-03T23:21:54.481Z,68.12
2019-05-03T23:24:24.823Z,69.09
2019-05-03T23:26:54.895Z,69.34
2019-05-03T23:29:25.064Z,71.30
2019-05-03T23:31:55.227Z,72.02
2019-05-03T23:34:25.407Z,72.22
2019-05-03T23:36:56.721Z,72.37
2019-05-03T23:39:26.921Z,72.26
2019-05-03T23:42:00.847Z,73.08
2019-05-03T23:44:35.115Z,74.63
2019-05-03T23:47:25.227Z,75.06
2019-05-03T23:49:57.913Z,73.98
2019-05-03T23:52:37.145Z,74.75
2019-05-03T23:55:19.014Z,74.96
2019-05-03T23:57:50.085Z,74.52
